Time;durP1;ratioP1;P1;durP2;ratioP2;P2;SDS_P1;SDS_P2;PMS_P1;PMS_P2;Temp;Humidity;BMP_temperature;BMP_pressure;BME280_temperature;BME280_humidity;BME280_pressure;Samples;Min_cycle;Max_cycle;Signal;HPM_P1;HPM_P2
2020/12/28 00:02:04;;;;;;;53.92;33.53;;;;;;;3.39;100.00;97598.69;4962882;28;20167;-76
2020/12/28 00:04:29;;;;;;;58.35;33.67;;;;;;;3.37;100.00;97604.16;4946977;28;20532;-76
2020/12/28 00:06:55;;;;;;;59.88;35.00;;;;;;;3.38;100.00;97608.44;4953877;28;20137;-76
2020/12/28 00:09:20;;;;;;;61.88;36.30;;;;;;;3.43;100.00;97605.25;4979339;28;20062;-75
2020/12/28 00:11:46;;;;;;;57.90;37.65;;;;;;;3.24;100.00;97557.38;4963662;28;20046;-77
2020/12/28 00:14:11;;;;;;;62.45;36.35;;;;;;;3.30;100.00;97569.81;4946738;28;20042;-76
2020/12/28 00:16:37;;;;;;;52.83;34.40;;;;;;;3.56;100.00;97599.25;4960116;28;20110;-76
2020/12/28 00:19:03;;;;;;;57.92;36.60;;;;;;;3.54;100.00;97586.28;4961950;28;20593;-76
2020/12/28 00:21:28;;;;;;;57.83;36.60;;;;;;;3.63;100.00;97603.59;4965208;28;20134;-76
2020/12/28 00:23:54;;;;;;;53.85;35.00;;;;;;;3.61;100.00;97602.16;4963114;28;20124;-77
2020/12/28 00:26:19;;;;;;;65.65;37.03;;;;;;;3.60;100.00;97598.69;4963600;28;20125;-76
2020/12/28 00:28:45;;;;;;;64.47;39.97;;;;;;;3.57;100.00;97593.00;4963321;28;20054;-76
2020/12/28 00:31:11;;;;;;;60.60;38.40;;;;;;;3.55;100.00;97595.00;4963132;28;20129;-76
2020/12/28 00:33:37;;;;;;;62.75;38.40;;;;;;;3.35;100.00;97572.69;4964986;28;20066;-76
2020/12/28 00:36:02;;;;;;;61.40;37.95;;;;;;;3.47;100.00;97594.13;4967078;28;20069;-76
2020/12/28 00:38:28;;;;;;;61.90;37.60;;;;;;;3.43;100.00;97597.31;4953267;28;20106;-76
2020/12/28 00:40:54;;;;;;;62.65;37.50;;;;;;;3.40;100.00;97589.78;4981040;28;20145;-76
2020/12/28 00:43:19;;;;;;;64.88;39.20;;;;;;;3.37;100.00;97591.00;4949339;28;20134;-76
2020/12/28 00:45:45;;;;;;;60.95;37.20;;;;;;;3.38;100.00;97589.97;4968370;28;20130;-75
2020/12/28 00:48:12;;;;;;;63.03;37.88;;;;;;;2.88;100.00;97521.34;4953401;28;20062;-76
2020/12/28 00:50:37;;;;;;;63.30;37.00;;;;;;;3.30;100.00;97585.66;4948979;28;20050;-76
2020/12/28 00:53:04;;;;;;;62.65;38.47;;;;;;;3.23;100.00;97582.09;4962980;28;20113;-76
2020/12/28 00:55:30;;;;;;;63.13;37.55;;;;;;;2.84;100.00;97538.50;4966047;28;20046;-76
2020/12/28 00:57:55;;;;;;;61.92;39.17;;;;;;;2.81;100.00;97537.06;4944947;28;20043;-76
2020/12/28 01:00:21;;;;;;;65.47;37.70;;;;;;;3.08;100.00;97587.41;4966834;28;20043;-76
2020/12/28 01:02:46;;;;;;;69.97;40.85;;;;;;;3.10;100.00;97584.59;4965229;28;20149;-76
2020/12/28 01:05:12;;;;;;;75.65;41.83;;;;;;;3.11;100.00;97584.41;4950535;28;20038;-75
2020/12/28 01:07:37;;;;;;;65.07;38.65;;;;;;;3.10;100.00;97579.31;4968396;28;20126;-76
2020/12/28 01:10:03;;;;;;;67.40;40.05;;;;;;;3.04;100.00;97583.50;4955236;28;20536;-76
2020/12/28 01:12:31;;;;;;;67.13;40.15;;;;;;;2.08;100.00;97447.47;4959708;28;20066;-75
2020/12/28 01:14:56;;;;;;;68.55;39.65;;;;;;;1.86;100.00;97425.50;4970268;28;20050;-75
2020/12/28 01:17:22;;;;;;;72.88;41.38;;;;;;;2.67;100.00;97551.06;4971249;28;20066;-77
2020/12/28 01:19:48;;;;;;;70.32;40.45;;;;;;;2.59;100.00;97550.16;4955648;28;20121;-76
2020/12/28 01:22:13;;;;;;;71.28;41.53;;;;;;;2.78;100.00;97576.13;4955970;28;20146;-75
2020/12/28 01:24:39;;;;;;;75.13;41.67;;;;;;;2.70;100.00;97566.50;4954460;28;20121;-75
2020/12/28 01:27:04;;;;;;;76.38;43.38;;;;;;;2.70;100.00;97584.94;4953293;28;20049;-75
2020/12/28 01:29:30;;;;;;;83.07;42.45;;;;;;;2.65;100.00;97585.47;4971524;28;20101;-75
2020/12/28 01:31:55;;;;;;;85.25;44.60;;;;;;;2.60;100.00;97580.75;4955372;28;20122;-76
2020/12/28 01:34:21;;;;;;;90.93;45.75;;;;;;;2.57;100.00;97583.75;4938336;28;20039;-75
2020/12/28 01:36:46;;;;;;;90.18;44.35;;;;;;;2.39;100.00;97551.72;4972188;28;20051;-75
2020/12/28 01:39:12;;;;;;;88.93;45.05;;;;;;;2.55;100.00;97580.50;4970645;28;20121;-75
2020/12/28 01:41:37;;;;;;;89.03;44.85;;;;;;;2.51;100.00;97589.75;4931945;28;20129;-80
2020/12/28 01:44:03;;;;;;;80.80;42.40;;;;;;;2.42;100.00;97575.84;4960859;28;20043;-75
2020/12/28 01:46:29;;;;;;;82.97;43.10;;;;;;;2.51;100.00;97592.38;4968591;28;20090;-75
2020/12/28 01:48:54;;;;;;;78.90;43.25;;;;;;;2.47;100.00;97588.44;4970703;28;20127;-75
2020/12/28 01:51:20;;;;;;;76.32;42.85;;;;;;;2.26;100.00;97560.22;4970829;28;20442;-76
2020/12/28 01:53:46;;;;;;;71.10;40.63;;;;;;;2.26;100.00;97576.00;4953608;28;20038;-76
2020/12/28 01:56:11;;;;;;;78.15;42.47;;;;;;;2.39;100.00;97610.41;4936287;28;20073;-75
2020/12/28 01:58:37;;;;;;;79.70;42.25;;;;;;;2.35;100.00;97611.78;4968641;28;20031;-76
2020/12/28 02:01:02;;;;;;;73.57;41.67;;;;;;;1.74;100.00;97512.72;4972315;28;20058;-75
2020/12/28 02:03:28;;;;;;;76.97;41.35;;;;;;;2.16;100.00;97586.81;4950636;28;20105;-75
2020/12/28 02:05:53;;;;;;;74.38;41.78;;;;;;;2.36;100.00;97618.69;4956448;28;20043;-75
2020/12/28 02:08:19;;;;;;;79.63;43.30;;;;;;;2.24;100.00;97594.63;4968691;28;20046;-75
2020/12/28 02:10:44;;;;;;;86.90;42.80;;;;;;;2.31;100.00;97602.59;4951388;28;20560;-75
2020/12/28 02:13:10;;;;;;;76.97;43.60;;;;;;;2.35;100.00;97616.22;4966643;28;20130;-75
2020/12/28 02:15:36;;;;;;;73.07;41.08;;;;;;;2.09;100.00;97591.13;4970762;28;20042;-75
2020/12/28 02:18:01;;;;;;;72.82;39.33;;;;;;;2.11;99.95;97603.09;4954187;28;20041;-74
2020/12/28 02:20:27;;;;;;;75.63;41.20;;;;;;;2.32;100.00;97633.19;4961140;28;20069;-75
2020/12/28 02:22:52;;;;;;;87.30;44.10;;;;;;;2.31;100.00;97641.28;4968025;28;20134;-81
2020/12/28 02:25:18;;;;;;;76.40;42.13;;;;;;;2.22;100.00;97619.47;4969923;28;20031;-75
2020/12/28 02:27:43;;;;;;;85.75;44.38;;;;;;;2.06;100.00;97591.50;4972887;28;20506;-77
2020/12/28 02:30:09;;;;;;;77.70;41.60;;;;;;;2.41;100.00;97637.38;4942805;29;20063;-74
2020/12/28 02:32:34;;;;;;;75.97;40.80;;;;;;;2.51;100.00;97646.84;4977846;28;20055;-75
2020/12/28 02:35:00;;;;;;;67.75;40.17;;;;;;;2.54;100.00;97647.28;4962970;28;20035;-75
2020/12/28 02:37:25;;;;;;;67.85;39.53;;;;;;;2.52;100.00;97644.03;4984533;28;20125;-75
2020/12/28 02:39:51;;;;;;;63.58;39.00;;;;;;;2.55;100.00;97646.31;4969992;28;20129;-75
2020/12/28 02:42:17;;;;;;;73.28;39.55;;;;;;;2.52;100.00;97646.66;4968230;28;20031;-75
2020/12/28 02:44:42;;;;;;;67.75;39.17;;;;;;;2.54;100.00;97644.66;4969081;28;20125;-75
2020/12/28 02:47:07;;;;;;;66.68;38.30;;;;;;;2.55;100.00;97650.72;4953506;28;20050;-76
2020/12/28 02:49:33;;;;;;;69.15;40.63;;;;;;;2.18;100.00;97586.63;4969286;28;20042;-76
2020/12/28 02:51:58;;;;;;;69.88;39.08;;;;;;;2.51;100.00;97654.75;4952632;28;20512;-76
2020/12/28 02:54:24;;;;;;;70.72;40.33;;;;;;;2.09;100.00;97583.25;4952179;28;20046;-75
2020/12/28 02:56:50;;;;;;;67.38;40.40;;;;;;;2.50;100.00;97653.91;4955896;28;20465;-75
2020/12/28 02:59:16;;;;;;;79.65;42.22;;;;;;;2.54;100.00;97660.47;4970907;28;20042;-75
2020/12/28 03:01:41;;;;;;;92.18;46.63;;;;;;;2.56;100.00;97652.38;4947540;28;20513;-76
2020/12/28 03:04:07;;;;;;;99.32;47.63;;;;;;;2.58;100.00;97655.63;4964651;28;20085;-75
2020/12/28 03:06:32;;;;;;;102.65;49.85;;;;;;;2.48;100.00;97624.31;4938213;28;20130;-75
2020/12/28 03:08:58;;;;;;;100.40;48.35;;;;;;;2.63;100.00;97637.50;4967777;28;20795;-75
2020/12/28 03:11:23;;;;;;;103.82;50.67;;;;;;;2.63;100.00;97629.59;4980617;28;20126;-75
2020/12/28 03:13:49;;;;;;;115.50;52.92;;;;;;;2.54;100.00;97593.81;4951296;28;20122;-76
2020/12/28 03:16:14;;;;;;;117.65;51.92;;;;;;;2.75;100.00;97629.94;4965187;28;20035;-75
2020/12/28 03:18:40;;;;;;;116.15;51.83;;;;;;;2.79;100.00;97633.88;4952683;28;20457;-76
2020/12/28 03:21:05;;;;;;;114.35;50.97;;;;;;;2.80;100.00;97647.84;4969552;28;20034;-76
2020/12/28 03:23:49;;;;;;;105.57;48.58;;;;;;;2.83;100.00;97648.31;4960663;28;20057;-75
2020/12/28 03:26:15;;;;;;;110.07;52.35;;;;;;;2.81;100.00;97646.84;4979433;28;20038;-75
2020/12/28 03:28:40;;;;;;;114.45;50.25;;;;;;;2.64;100.00;97607.53;4953302;28;20066;-75
2020/12/28 03:31:06;;;;;;;110.47;50.05;;;;;;;2.88;100.00;97645.13;4969250;28;20042;-75
2020/12/28 03:33:31;;;;;;;109.90;47.83;;;;;;;2.83;100.00;97647.47;4984388;28;20133;-75
2020/12/28 03:35:57;;;;;;;110.43;49.92;;;;;;;2.70;100.00;97624.44;4946234;28;20141;-75
2020/12/28 03:38:22;;;;;;;110.95;49.05;;;;;;;2.56;100.00;97602.34;4969275;28;20054;-75
2020/12/28 03:40:48;;;;;;;100.63;45.10;;;;;;;2.85;100.00;97651.56;4949047;28;20114;-75
2020/12/28 03:43:13;;;;;;;106.45;46.80;;;;;;;2.85;100.00;97650.75;4964828;28;20130;-76
2020/12/28 03:45:39;;;;;;;109.20;46.65;;;;;;;2.84;100.00;97651.75;4970906;28;20054;-75
2020/12/28 03:48:04;;;;;;;105.15;47.40;;;;;;;2.84;100.00;97651.75;4969177;28;20038;-75
2020/12/28 03:50:30;;;;;;;95.85;46.47;;;;;;;2.72;100.00;97631.13;4968169;28;20094;-76
2020/12/28 03:52:55;;;;;;;98.25;46.78;;;;;;;2.14;100.00;97550.16;4968706;28;20122;-77
2020/12/28 03:55:21;;;;;;;93.70;46.20;;;;;;;2.83;100.00;97653.56;4964924;28;20042;-76
2020/12/28 03:57:46;;;;;;;97.90;45.97;;;;;;;2.84;100.00;97647.31;4967237;28;20481;-75
2020/12/28 04:00:12;;;;;;;99.93;46.05;;;;;;;2.89;100.00;97659.94;4968888;28;20051;-75
2020/12/28 04:02:38;;;;;;;101.43;47.63;;;;;;;2.87;100.00;97652.19;4968481;28;20057;-78
2020/12/28 04:05:05;;;;;;;98.30;46.40;;;;;;;2.85;100.00;97642.84;4969056;28;20087;-75
2020/12/28 04:07:31;;;;;;;103.60;45.47;;;;;;;2.92;100.00;97656.91;4973062;28;20057;-75
2020/12/28 04:09:56;;;;;;;93.25;45.28;;;;;;;2.83;100.00;97647.47;4973734;28;20102;-77
2020/12/28 04:12:22;;;;;;;99.40;44.97;;;;;;;2.88;100.00;97659.09;4976842;28;20043;-75
2020/12/28 04:14:47;;;;;;;99.22;45.75;;;;;;;2.94;100.00;97665.44;4968139;28;20122;-75
2020/12/28 04:17:13;;;;;;;104.22;45.28;;;;;;;2.90;99.67;97658.94;4972541;28;20102;-74
2020/12/28 04:19:39;;;;;;;98.15;45.05;;;;;;;2.80;99.68;97639.94;4971357;28;20501;-76
2020/12/28 04:22:04;;;;;;;97.20;44.40;;;;;;;2.92;99.66;97662.19;4972946;28;20067;-75
2020/12/28 04:24:30;;;;;;;89.15;43.47;;;;;;;2.94;99.56;97662.00;4971548;28;20413;-76
2020/12/28 04:26:55;;;;;;;91.30;41.35;;;;;;;2.98;98.89;97666.72;4971207;28;20042;-76
2020/12/28 04:29:20;;;;;;;97.15;42.20;;;;;;;2.79;99.48;97628.59;4972515;28;20493;-76
2020/12/28 04:31:46;;;;;;;91.82;41.97;;;;;;;2.92;98.71;97659.53;4972136;28;20046;-75
2020/12/28 04:34:11;;;;;;;94.40;44.08;;;;;;;3.02;98.81;97665.38;4964876;28;20043;-77
2020/12/28 04:36:37;;;;;;;95.53;43.25;;;;;;;2.97;98.82;97659.03;4970055;28;20046;-84
2020/12/28 04:39:04;;;;;;;96.40;42.55;;;;;;;2.49;98.99;97573.31;4973869;28;20465;-75
2020/12/28 04:41:29;;;;;;;91.88;41.00;;;;;;;2.80;98.22;97622.34;4972175;28;20070;-77
2020/12/28 04:43:55;;;;;;;105.25;42.90;;;;;;;2.72;98.27;97617.97;4949351;28;20110;-77
2020/12/28 04:46:20;;;;;;;86.30;41.83;;;;;;;2.93;98.68;97655.13;4952393;28;20074;-77
2020/12/28 04:48:46;;;;;;;92.43;41.10;;;;;;;2.60;99.01;97596.53;4966185;28;20046;-76
2020/12/28 04:51:11;;;;;;;82.28;39.38;;;;;;;2.97;99.22;97656.38;4977266;28;20046;-76
2020/12/28 04:53:37;;;;;;;81.18;39.47;;;;;;;2.87;98.91;97646.94;4959802;28;20034;-76
2020/12/28 04:56:02;;;;;;;84.32;40.63;;;;;;;2.81;98.57;97633.66;4942981;28;20126;-76
2020/12/28 04:58:28;;;;;;;79.75;39.10;;;;;;;2.96;98.87;97652.94;4971757;28;20042;-76
2020/12/28 05:00:57;;;;;;;77.60;39.42;;;;;;;2.80;98.60;97640.78;4967640;28;20046;-76
2020/12/28 05:03:24;;;;;;;87.70;39.53;;;;;;;2.89;99.20;97663.38;4948461;29;20557;-75
2020/12/28 05:05:49;;;;;;;81.93;40.28;;;;;;;2.81;98.78;97641.56;4969134;28;20050;-76
2020/12/28 05:08:16;;;;;;;79.22;40.35;;;;;;;2.94;99.05;97669.91;4971375;28;20043;-76
2020/12/28 05:10:42;;;;;;;79.28;39.15;;;;;;;3.00;98.88;97672.66;4955635;28;20058;-76
2020/12/28 05:13:11;;;;;;;75.70;37.58;;;;;;;3.05;98.68;97680.00;4970715;28;20042;-76
2020/12/28 05:15:57;;;;;;;78.55;38.63;;;;;;;2.47;97.70;97585.81;4952437;28;20046;-76
2020/12/28 05:18:22;;;;;;;74.53;38.70;;;;;;;2.84;98.00;97646.47;4969254;28;20031;-76
2020/12/28 05:20:48;;;;;;;75.78;38.40;;;;;;;2.79;97.67;97633.03;4966707;28;20138;-76
2020/12/28 05:23:14;;;;;;;75.00;38.35;;;;;;;3.00;97.91;97675.28;4954413;28;20043;-76
2020/12/28 05:25:50;;;;;;;72.60;39.72;;;;;;;2.98;97.84;97673.84;4970585;28;20468;-78
2020/12/28 05:28:25;;;;;;;75.82;38.00;;;;;;;2.73;97.97;97624.03;4970395;28;20035;-79
2020/12/28 05:30:51;;;;;;;71.95;37.60;;;;;;;2.69;97.91;97634.13;4955062;28;20057;-76
2020/12/28 05:33:17;;;;;;;69.18;36.10;;;;;;;2.89;98.03;97654.66;4970599;28;20057;-75
2020/12/28 05:35:43;;;;;;;66.75;36.03;;;;;;;2.97;97.51;97674.84;4974333;28;20509;-75
2020/12/28 05:38:09;;;;;;;67.60;37.53;;;;;;;2.93;97.58;97663.81;4970369;28;20043;-76
2020/12/28 05:40:35;;;;;;;68.55;37.97;;;;;;;2.48;97.73;97587.47;4971057;28;20046;-75
2020/12/28 05:43:01;;;;;;;68.63;36.47;;;;;;;2.81;97.72;97621.34;4931517;28;20027;-80
2020/12/28 05:45:27;;;;;;;64.88;36.90;;;;;;;2.97;97.80;97649.28;4958166;28;20121;-76
2020/12/28 05:47:54;;;;;;;70.68;36.72;;;;;;;2.99;97.79;97649.09;4969187;28;20062;-77
2020/12/28 05:50:21;;;;;;;67.10;36.22;;;;;;;2.87;97.66;97631.13;4956994;28;20576;-75
2020/12/28 05:52:50;;;;;;;72.43;35.08;;;;;;;2.59;97.82;97597.53;4970763;28;20046;-80
2020/12/28 05:55:17;;;;;;;61.40;34.45;;;;;;;2.99;97.55;97651.72;4931180;28;20062;-76
2020/12/28 05:57:44;;;;;;;66.28;36.45;;;;;;;2.94;98.06;97646.22;4970645;28;20657;-75
2020/12/28 06:00:09;;;;;;;72.10;37.88;;;;;;;2.84;98.17;97625.41;4968552;28;20077;-76
2020/12/28 06:02:35;;;;;;;56.17;33.78;;;;;;;2.82;97.25;97624.78;4950796;28;20062;-75
2020/12/28 06:05:00;;;;;;;59.50;35.45;;;;;;;2.96;97.20;97650.28;4937340;28;20410;-76
2020/12/28 06:07:26;;;;;;;61.85;36.28;;;;;;;2.95;97.73;97648.66;4969278;28;20034;-75
2020/12/28 06:09:55;;;;;;;61.30;36.30;;;;;;;2.68;97.21;97602.72;4971204;28;20054;-75
2020/12/28 06:12:21;;;;;;;62.88;35.55;;;;;;;3.01;97.07;97655.84;4950548;28;20047;-75
2020/12/28 06:14:46;;;;;;;64.32;35.20;;;;;;;3.05;97.31;97659.72;4965432;28;20053;-76
2020/12/28 06:17:12;;;;;;;58.13;35.75;;;;;;;3.00;96.86;97648.09;4969810;28;20500;-76
2020/12/28 06:19:38;;;;;;;61.85;36.00;;;;;;;2.95;96.53;97653.13;4948115;28;20081;-76
2020/12/28 06:22:16;;;;;;;59.80;35.10;;;;;;;2.94;96.90;97657.56;4972405;28;20538;-76
2020/12/28 06:24:42;;;;;;;54.92;32.60;;;;;;;2.96;97.11;97663.47;4966926;28;20383;-78
2020/12/28 06:27:08;;;;;;;47.97;30.48;;;;;;;2.87;97.28;97656.66;4946146;28;20131;-75
2020/12/28 06:29:35;;;;;;;53.70;31.98;;;;;;;2.54;97.55;97609.59;4968374;28;20038;-76
2020/12/28 06:32:14;;;;;;;52.80;32.08;;;;;;;2.61;97.49;97602.63;4969935;28;20030;-76
2020/12/28 06:34:40;;;;;;;54.28;32.15;;;;;;;2.79;97.02;97633.88;4953521;28;20129;-76
2020/12/28 06:37:05;;;;;;;57.88;33.25;;;;;;;2.96;97.23;97666.09;4969946;28;20042;-76
2020/12/28 06:39:31;;;;;;;53.20;32.22;;;;;;;2.84;97.30;97660.47;4971103;28;20553;-76
2020/12/28 06:42:13;;;;;;;46.50;31.00;;;;;;;2.79;96.82;97662.00;4942483;28;20038;-76
2020/12/28 06:44:39;;;;;;;49.80;31.92;;;;;;;2.85;96.25;97675.25;4969747;28;20145;-76
2020/12/28 06:47:23;;;;;;;50.22;31.45;;;;;;;2.82;96.69;97690.63;4969045;28;20100;-76
2020/12/28 06:49:49;;;;;;;46.45;28.63;;;;;;;2.68;96.72;97686.97;4936645;28;20039;-76
2020/12/28 06:52:15;;;;;;;49.63;29.02;;;;;;;2.67;97.22;97694.03;4968684;28;20058;-76
2020/12/28 06:54:41;;;;;;;50.88;29.42;;;;;;;2.65;97.33;97701.31;4970002;28;20233;-76
2020/12/28 06:57:07;;;;;;;47.17;29.17;;;;;;;2.61;97.24;97707.94;4971294;28;20038;-76
2020/12/28 06:59:33;;;;;;;52.17;30.05;;;;;;;2.56;97.17;97699.75;4969041;28;20063;-76
2020/12/28 07:01:59;;;;;;;54.85;29.20;;;;;;;2.54;97.58;97702.56;4971582;28;20554;-76
2020/12/28 07:04:25;;;;;;;49.65;29.70;;;;;;;2.14;97.73;97644.84;4969910;28;20614;-78
2020/12/28 07:07:06;;;;;;;48.55;29.33;;;;;;;2.35;97.67;97684.63;4971255;28;20052;-77
2020/12/28 07:09:32;;;;;;;54.78;29.33;;;;;;;2.43;98.04;97679.31;4961864;28;20073;-77
2020/12/28 07:12:24;;;;;;;51.83;30.38;;;;;;;2.60;97.57;97699.22;4958831;28;20042;-76
2020/12/28 07:14:49;;;;;;;63.40;32.63;;;;;;;2.57;97.95;97706.66;4983867;28;20058;-76
2020/12/28 07:17:15;;;;;;;58.70;30.95;;;;;;;2.54;98.08;97707.84;4984237;28;20137;-76
2020/12/28 07:19:40;;;;;;;70.45;32.60;;;;;;;2.49;98.23;97683.06;4965615;28;20033;-76
2020/12/28 07:22:06;;;;;;;52.33;29.17;;;;;;;2.55;98.01;97706.84;4983040;28;20564;-77
2020/12/28 07:24:32;;;;;;;50.53;28.35;;;;;;;2.54;98.92;97713.09;4982163;28;20092;-81
2020/12/28 07:26:58;;;;;;;52.15;29.35;;;;;;;2.48;98.82;97702.47;4978096;28;20113;-76
2020/12/28 07:29:24;;;;;;;53.83;28.70;;;;;;;2.59;98.86;97731.00;4983401;28;20106;-76
2020/12/28 07:31:49;;;;;;;57.10;30.05;;;;;;;2.31;98.89;97684.19;4982430;28;20070;-76
2020/12/28 07:34:19;;;;;;;61.00;30.38;;;;;;;2.48;98.88;97705.91;4951098;28;20856;-77
2020/12/28 07:36:47;;;;;;;52.13;29.33;;;;;;;2.71;99.25;97728.75;4952323;28;20287;-76
2020/12/28 07:39:12;;;;;;;54.85;29.08;;;;;;;2.52;98.19;97694.03;4953081;28;20394;-77
2020/12/28 07:41:38;;;;;;;46.03;26.98;;;;;;;2.74;98.31;97718.69;4937251;28;20156;-77
2020/12/28 07:44:03;;;;;;;42.05;25.65;;;;;;;2.69;97.68;97705.22;4954619;28;20044;-76
2020/12/28 07:46:37;;;;;;;48.80;26.15;;;;;;;2.84;98.04;97721.06;4969734;28;20150;-76
2020/12/28 07:49:25;;;;;;;35.88;23.20;;;;;;;2.70;97.84;97711.31;4969480;28;20022;-77
2020/12/28 07:52:02;;;;;;;36.17;21.27;;;;;;;2.83;97.27;97729.97;4937657;28;20089;-76
2020/12/28 07:54:37;;;;;;;33.10;18.38;;;;;;;2.79;97.08;97712.88;4971727;28;20088;-84
2020/12/28 07:57:03;;;;;;;33.15;17.27;;;;;;;2.89;97.29;97734.50;4962885;28;20162;-77
2020/12/28 07:59:28;;;;;;;28.42;18.80;;;;;;;2.91;97.07;97735.13;4957754;28;20069;-77
2020/12/28 08:01:53;;;;;;;30.73;17.20;;;;;;;2.94;97.24;97728.69;4969459;28;20042;-76
2020/12/28 08:04:21;;;;;;;30.02;16.67;;;;;;;2.73;97.42;97695.97;4958641;28;20056;-79
2020/12/28 08:06:47;;;;;;;25.90;17.05;;;;;;;2.94;97.26;97731.31;4956992;28;20027;-76
2020/12/28 08:09:12;;;;;;;26.17;17.00;;;;;;;2.99;97.26;97733.41;4959120;28;20790;-77
2020/12/28 08:11:38;;;;;;;29.45;17.90;;;;;;;3.05;97.30;97736.13;4962606;28;20121;-77
2020/12/28 08:14:10;;;;;;;32.53;18.52;;;;;;;2.72;97.15;97678.53;4975077;28;20125;-78
2020/12/28 08:16:35;;;;;;;36.28;20.15;;;;;;;2.98;96.86;97713.34;4963193;28;20030;-77
2020/12/28 08:19:01;;;;;;;32.60;17.85;;;;;;;3.10;96.56;97726.88;4960369;28;20449;-78
2020/12/28 08:21:37;;;;;;;26.48;17.65;;;;;;;3.19;96.25;97741.59;4970638;28;20142;-77
2020/12/28 08:24:03;;;;;;;29.17;17.70;;;;;;;3.17;96.85;97733.06;4954155;28;20042;-77
2020/12/28 08:26:29;;;;;;;28.80;17.95;;;;;;;3.20;96.48;97743.22;4952921;28;20180;-77
2020/12/28 08:28:59;;;;;;;22.35;16.35;;;;;;;3.18;96.06;97738.13;4956449;28;20042;-77
2020/12/28 08:31:33;;;;;;;23.15;15.85;;;;;;;3.11;95.65;97734.59;4934476;28;20489;-78
2020/12/28 08:34:09;;;;;;;23.92;15.77;;;;;;;3.11;95.86;97731.13;4954656;28;20805;-77
2020/12/28 08:36:36;;;;;;;20.98;14.30;;;;;;;3.08;95.33;97727.06;4944981;28;20133;-77
2020/12/28 08:39:21;;;;;;;22.48;14.63;;;;;;;3.17;95.38;97733.88;4952514;28;20052;-78
2020/12/28 08:41:57;;;;;;;21.10;14.93;;;;;;;3.20;95.38;97740.59;4970615;28;20164;-77
2020/12/28 08:44:25;;;;;;;23.38;14.35;;;;;;;3.21;95.36;97731.69;4969463;28;20121;-78
2020/12/28 08:46:51;;;;;;;;;;;;;;;3.18;95.34;97735.50;4985261;28;20173;-77
2020/12/28 08:49:45;;;;;;;25.75;15.20;;;;;;;3.21;95.47;97739.59;4948485;28;20037;-76
2020/12/28 08:52:12;;;;;;;28.23;14.35;;;;;;;2.45;94.91;97624.66;4976856;28;20153;-77
2020/12/28 08:54:37;;;;;;;21.50;14.50;;;;;;;2.66;95.58;97645.00;4942107;28;20037;-77
2020/12/28 08:57:03;;;;;;;21.98;14.02;;;;;;;3.28;95.39;97737.03;4961804;28;20483;-77
2020/12/28 08:59:29;;;;;;;18.75;13.18;;;;;;;3.32;95.52;97723.34;4975534;28;20494;-77
2020/12/28 09:01:55;;;;;;;24.77;14.82;;;;;;;3.29;95.19;97717.59;4941143;28;20069;-77
2020/12/28 09:04:21;;;;;;;22.55;13.65;;;;;;;2.87;94.81;97646.94;4935811;28;20082;-77
2020/12/28 09:06:47;;;;;;;26.08;12.50;;;;;;;3.23;94.56;97695.41;4940370;28;20786;-77
2020/12/28 09:09:14;;;;;;;19.33;11.82;;;;;;;3.47;94.42;97725.94;4952104;28;20199;-77
2020/12/28 09:11:44;;;;;;;27.33;11.70;;;;;;;3.40;94.86;97722.41;4968590;28;20548;-76
2020/12/28 09:14:09;;;;;;;22.02;11.55;;;;;;;3.47;94.71;97738.28;4948879;28;20062;-75
2020/12/28 09:16:35;;;;;;;23.02;11.48;;;;;;;3.53;93.83;97745.47;4965794;28;20514;-75
2020/12/28 09:19:01;;;;;;;22.67;10.63;;;;;;;3.53;94.26;97734.94;4952972;28;20073;-75
2020/12/28 09:21:26;;;;;;;25.00;10.68;;;;;;;3.46;93.72;97728.78;4946802;28;21387;-75
2020/12/28 09:23:52;;;;;;;20.92;10.98;;;;;;;3.60;94.30;97753.47;4960451;28;20149;-75
2020/12/28 09:26:17;;;;;;;19.65;10.52;;;;;;;3.63;94.46;97750.47;4950792;28;20070;-75
2020/12/28 09:28:43;;;;;;;17.02;9.25;;;;;;;3.75;94.17;97756.91;4955165;28;20126;-75
2020/12/28 09:31:09;;;;;;;17.10;8.90;;;;;;;3.58;93.69;97721.19;4966654;28;20038;-75
2020/12/28 09:33:34;;;;;;;15.27;8.27;;;;;;;3.83;93.32;97759.44;4951665;28;20038;-76
2020/12/28 09:36:00;;;;;;;15.90;7.93;;;;;;;3.88;92.75;97755.44;4953472;28;20041;-75
2020/12/28 09:38:26;;;;;;;21.63;8.13;;;;;;;3.44;93.40;97692.03;4941096;28;20053;-75
2020/12/28 09:40:51;;;;;;;15.13;7.60;;;;;;;3.97;92.18;97762.22;4936343;28;20026;-75
2020/12/28 09:43:17;;;;;;;18.00;7.88;;;;;;;3.97;92.85;97755.13;4935815;28;20015;-75
2020/12/28 09:45:42;;;;;;;11.80;6.63;;;;;;;3.90;92.31;97734.94;4931756;28;20027;-75
2020/12/28 09:48:08;;;;;;;11.27;6.03;;;;;;;4.13;91.63;97763.81;4951939;28;20042;-75
2020/12/28 09:50:33;;;;;;;16.65;6.50;;;;;;;4.02;91.09;97741.38;4953072;28;20165;-75
2020/12/28 09:52:59;;;;;;;13.10;6.30;;;;;;;4.22;91.55;97767.97;4954029;28;20570;-76
2020/12/28 09:55:24;;;;;;;14.43;6.28;;;;;;;4.23;91.82;97753.75;4934427;28;20474;-75
2020/12/28 09:57:51;;;;;;;18.83;6.72;;;;;;;3.74;91.02;97676.16;4935515;28;20126;-76
2020/12/28 10:00:19;;;;;;;15.65;6.93;;;;;;;4.12;90.77;97730.50;4949862;28;20034;-76
2020/12/28 10:02:44;;;;;;;16.52;6.10;;;;;;;4.35;90.56;97769.09;4940363;28;20069;-75
2020/12/28 10:05:10;;;;;;;16.23;6.03;;;;;;;3.58;89.80;97636.81;4948435;28;20035;-77
2020/12/28 10:07:37;;;;;;;10.40;5.40;;;;;;;4.19;88.83;97736.66;4932574;28;20035;-75
2020/12/28 10:10:08;;;;;;;10.35;5.13;;;;;;;4.24;89.00;97734.28;4949842;28;20053;-75
2020/12/28 10:12:38;;;;;;;11.45;4.97;;;;;;;4.34;89.69;97759.53;4956758;28;20046;-75
2020/12/28 10:15:05;;;;;;;12.95;5.75;;;;;;;4.24;89.67;97734.28;4950255;28;20477;-75
2020/12/28 10:17:30;;;;;;;14.23;4.47;;;;;;;4.43;88.70;97764.50;4960493;28;20485;-75
2020/12/28 10:19:56;;;;;;;12.63;5.18;;;;;;;4.22;88.60;97706.44;4954301;28;20133;-75
2020/12/28 10:22:21;;;;;;;11.23;4.88;;;;;;;4.23;88.58;97689.59;4953629;28;20037;-76
2020/12/28 10:24:47;;;;;;;13.93;4.43;;;;;;;4.69;87.64;97749.91;4957830;28;20133;-75
2020/12/28 10:27:13;;;;;;;9.25;4.32;;;;;;;4.63;87.28;97748.00;4943972;28;20058;-75
2020/12/28 10:29:38;;;;;;;9.25;3.92;;;;;;;4.76;87.21;97760.53;4958559;28;21728;-75
2020/12/28 10:32:03;;;;;;;7.75;3.78;;;;;;;4.75;87.26;97762.31;4944216;28;20550;-75
2020/12/28 10:34:29;;;;;;;10.25;4.25;;;;;;;4.83;88.32;97760.56;4956102;28;20255;-75
2020/12/28 10:36:56;;;;;;;12.80;4.43;;;;;;;4.74;87.53;97738.75;4943676;28;20031;-75
2020/12/28 10:39:21;;;;;;;8.57;3.90;;;;;;;4.85;86.85;97743.50;4952312;28;20050;-75
2020/12/28 10:41:47;;;;;;;8.77;3.35;;;;;;;5.09;85.43;97762.56;4923692;28;20550;-75
2020/12/28 10:44:12;;;;;;;8.00;3.10;;;;;;;5.12;85.52;97754.25;4952170;28;20062;-75
2020/12/28 10:46:38;;;;;;;8.43;3.72;;;;;;;5.11;85.86;97755.25;4971487;28;20118;-74
2020/12/28 10:49:12;;;;;;;7.35;3.17;;;;;;;4.87;85.78;97717.72;4953537;28;20392;-76
2020/12/28 10:51:38;;;;;;;10.52;3.60;;;;;;;5.18;85.41;97760.59;4956475;28;20042;-75
2020/12/28 10:54:03;;;;;;;9.98;3.40;;;;;;;5.18;85.37;97758.78;4951660;28;20125;-75
2020/12/28 10:56:29;;;;;;;12.88;4.05;;;;;;;5.08;84.96;97736.34;4941407;28;20046;-75
2020/12/28 10:58:56;;;;;;;7.95;2.80;;;;;;;5.02;85.08;97725.53;4945237;28;20030;-75
2020/12/28 11:01:22;;;;;;;8.63;2.97;;;;;;;5.14;85.92;97748.78;4932213;28;20038;-75
2020/12/28 11:03:48;;;;;;;11.40;4.40;;;;;;;4.89;85.86;97717.50;4936670;28;20430;-75
2020/12/28 11:06:14;;;;;;;8.70;4.05;;;;;;;5.09;86.19;97756.47;4949780;28;20074;-75
2020/12/28 11:08:39;;;;;;;12.55;2.80;;;;;;;5.09;85.55;97756.47;4952747;28;20049;-75
2020/12/28 11:11:05;;;;;;;6.55;3.20;;;;;;;5.12;85.21;97753.44;4968188;28;20493;-75
2020/12/28 11:13:30;;;;;;;9.65;3.67;;;;;;;5.16;85.33;97733.53;4953233;28;20038;-75
2020/12/28 11:15:56;;;;;;;6.30;3.17;;;;;;;5.25;84.50;97753.53;4955748;28;20047;-75
2020/12/28 11:18:22;;;;;;;7.53;2.53;;;;;;;5.27;84.26;97743.59;4956519;28;20121;-75
2020/12/28 11:20:48;;;;;;;9.00;3.03;;;;;;;5.21;84.34;97747.00;4968373;28;20129;-74
2020/12/28 11:23:14;;;;;;;10.95;3.33;;;;;;;5.28;84.59;97744.38;4958407;28;20038;-75